createdAt,value
2022-08-11T00:01:53.170Z,27.92
2022-08-11T00:04:21.210Z,27.92
2022-08-11T00:06:48.963Z,27.94
2022-08-11T00:09:18.271Z,27.97
2022-08-11T00:11:49.011Z,27.98
2022-08-11T00:14:19.253Z,27.97
2022-08-11T00:16:54.954Z,27.98
2022-08-11T00:20:12.300Z,27.98
2022-08-11T00:22:10.933Z,28.00
2022-08-11T00:24:54.972Z,27.98
2022-08-11T00:27:33.263Z,27.96
2022-08-11T00:30:01.971Z,27.96
2022-08-11T00:32:29.713Z,27.95
2022-08-11T00:35:54.742Z,27.95
2022-08-11T00:37:46.287Z,27.90
2022-08-11T00:40:18.041Z,27.91
2022-08-11T00:42:48.066Z,27.92
2022-08-11T00:45:21.579Z,27.92
2022-08-11T00:47:56.649Z,27.92
2022-08-11T00:50:30.434Z,27.91
2022-08-11T00:53:09.181Z,27.90
2022-08-11T00:56:12.475Z,27.90
2022-08-11T00:59:06.373Z,27.90
2022-08-11T01:02:00.708Z,27.90
2022-08-11T01:04:57.962Z,27.88
2022-08-11T01:08:02.875Z,27.87
2022-08-11T01:10:43.341Z,27.88
2022-08-11T01:13:16.968Z,27.85
2022-08-11T01:16:00.222Z,27.85
2022-08-11T01:19:02.185Z,27.87
2022-08-11T01:21:59.628Z,27.86
2022-08-11T01:25:10.241Z,27.86
2022-08-11T01:28:02.723Z,27.86
2022-08-11T01:30:54.513Z,27.88
2022-08-11T01:33:52.286Z,27.84
2022-08-11T01:36:58.885Z,27.83
2022-08-11T01:40:08.233Z,27.83
2022-08-11T01:45:42.100Z,27.80
2022-08-11T01:48:12.990Z,27.84
2022-08-11T01:51:04.345Z,27.81
2022-08-11T01:53:35.897Z,27.81
2022-08-11T01:56:14.034Z,27.80
2022-08-11T01:58:44.546Z,27.80
2022-08-11T02:01:21.418Z,27.78
2022-08-11T02:03:56.106Z,27.79
2022-08-11T02:06:44.659Z,27.78
2022-08-11T02:09:17.926Z,27.78
2022-08-11T02:11:46.937Z,27.78
2022-08-11T02:14:20.835Z,27.78
2022-08-11T02:16:53.211Z,27.81
2022-08-11T02:19:41.847Z,27.79
2022-08-11T02:22:35.219Z,27.78
2022-08-11T02:25:04.800Z,27.79
2022-08-11T02:27:39.160Z,27.81
2022-08-11T02:30:08.443Z,27.78
2022-08-11T02:32:55.701Z,27.76
2022-08-11T02:35:27.525Z,27.76
2022-08-11T02:38:02.103Z,27.74
2022-08-11T02:40:34.421Z,27.74
2022-08-11T02:43:22.936Z,27.74
2022-08-11T02:45:55.348Z,27.71
2022-08-11T02:48:48.525Z,27.73
2022-08-11T02:51:22.365Z,27.70
2022-08-11T02:53:56.315Z,27.69
2022-08-11T02:56:32.281Z,27.70
2022-08-11T02:59:22.396Z,27.67
2022-08-11T03:01:51.181Z,27.68
2022-08-11T03:04:21.383Z,27.65
2022-08-11T03:06:50.449Z,27.65
2022-08-11T03:09:20.134Z,27.66
2022-08-11T03:12:11.334Z,27.64
2022-08-11T03:15:01.989Z,27.66
2022-08-11T03:17:31.161Z,27.65
2022-08-11T03:20:21.514Z,27.61
2022-08-11T03:22:52.597Z,27.61
2022-08-11T03:25:30.256Z,27.62
2022-08-11T03:28:03.524Z,27.60
2022-08-11T03:30:35.859Z,27.59
2022-08-11T03:33:34.677Z,27.58
2022-08-11T03:36:08.941Z,27.60
2022-08-11T03:38:44.985Z,27.59
2022-08-11T03:42:02.610Z,27.59
2022-08-11T03:44:39.245Z,27.60
2022-08-11T03:47:18.303Z,27.60
2022-08-11T03:49:58.719Z,27.61
2022-08-11T03:52:30.074Z,27.58
2022-08-11T03:55:02.658Z,27.57
2022-08-11T03:58:00.845Z,27.57
2022-08-11T04:00:46.489Z,27.55
2022-08-11T04:03:48.956Z,27.55
2022-08-11T04:06:37.085Z,27.55
2022-08-11T04:09:24.778Z,27.55
2022-08-11T04:12:45.712Z,27.53
2022-08-11T04:15:32.048Z,27.52
2022-08-11T04:18:08.006Z,27.53
2022-08-11T04:20:44.642Z,27.54
2022-08-11T04:24:36.728Z,27.54
2022-08-11T04:26:34.763Z,27.53
2022-08-11T04:29:09.492Z,27.54
2022-08-11T04:31:44.105Z,27.53
2022-08-11T04:34:36.766Z,27.49
2022-08-11T04:37:30.591Z,27.48
2022-08-11T04:40:29.880Z,27.48
2022-08-11T04:43:20.809Z,27.49
2022-08-11T04:46:06.953Z,27.50
2022-08-11T04:49:03.733Z,27.50
2022-08-11T04:52:05.177Z,27.48
2022-08-11T04:54:59.734Z,27.45
2022-08-11T04:57:53.582Z,27.45
2022-08-11T05:00:39.049Z,27.46
2022-08-11T05:03:33.048Z,27.46
2022-08-11T05:06:40.794Z,27.46
2022-08-11T05:09:18.654Z,27.46
2022-08-11T05:12:02.038Z,27.45
2022-08-11T05:14:52.277Z,27.36
2022-08-11T05:17:43.213Z,27.38
2022-08-11T05:20:29.569Z,27.38
2022-08-11T05:23:14.528Z,27.38
2022-08-11T05:26:44.640Z,27.39
2022-08-11T05:29:20.283Z,27.39
2022-08-11T05:32:09.753Z,27.35
2022-08-11T05:34:53.927Z,27.38
2022-08-11T05:37:27.202Z,27.42
2022-08-11T05:40:14.774Z,27.45
2022-08-11T05:43:02.344Z,27.44
2022-08-11T05:45:58.671Z,27.46
2022-08-11T05:48:52.373Z,27.50
2022-08-11T05:51:41.357Z,27.43
2022-08-11T05:54:40.130Z,27.39
2022-08-11T05:57:08.261Z,27.38
2022-08-11T05:59:35.712Z,27.37
2022-08-11T06:02:06.143Z,27.37
2022-08-11T06:04:33.764Z,27.28
2022-08-11T06:07:02.824Z,27.22
2022-08-11T06:09:32.825Z,27.20
2022-08-11T06:12:02.049Z,27.23
2022-08-11T06:14:29.666Z,27.21
2022-08-11T06:17:00.034Z,27.24
2022-08-11T06:19:40.015Z,27.25
2022-08-11T06:22:08.858Z,27.26
2022-08-11T06:24:38.756Z,27.27
2022-08-11T06:27:14.267Z,27.30
2022-08-11T06:29:54.740Z,27.37
2022-08-11T06:32:25.304Z,27.33
2022-08-11T06:34:59.803Z,27.29
2022-08-11T06:37:35.906Z,27.30
2022-08-11T06:40:06.493Z,27.30
2022-08-11T06:42:38.006Z,27.30
2022-08-11T06:45:10.512Z,27.33
2022-08-11T06:47:37.971Z,27.36
2022-08-11T06:50:30.041Z,27.39
2022-08-11T06:52:57.989Z,27.44
2022-08-11T06:55:58.190Z,27.54
2022-08-11T06:58:45.659Z,27.58
2022-08-11T07:01:14.483Z,27.62
2022-08-11T07:03:44.713Z,27.66
2022-08-11T07:06:25.656Z,27.68
2022-08-11T07:09:25.742Z,27.72
2022-08-11T07:12:34.104Z,27.75
2022-08-11T07:15:19.008Z,27.78
2022-08-11T07:17:49.253Z,27.76
2022-08-11T07:20:40.009Z,27.76
2022-08-11T07:23:26.471Z,27.76
2022-08-11T07:26:11.893Z,27.71
2022-08-11T07:28:56.175Z,27.72
2022-08-11T07:31:27.383Z,27.69
2022-08-11T07:34:05.212Z,27.67
2022-08-11T07:36:38.715Z,27.66
2022-08-11T07:39:08.444Z,27.63
2022-08-11T07:41:35.953Z,27.60
2022-08-11T07:44:09.658Z,27.69
2022-08-11T07:46:57.439Z,27.75
2022-08-11T07:49:42.875Z,27.72
2022-08-11T07:52:29.347Z,27.74
2022-08-11T07:54:59.699Z,27.75
2022-08-11T07:57:58.510Z,27.78
2022-08-11T08:00:54.381Z,27.77
2022-08-11T08:03:39.337Z,27.79
2022-08-11T08:06:39.654Z,27.83
2022-08-11T08:09:24.419Z,27.89
2022-08-11T08:12:10.948Z,27.97
2022-08-11T08:14:55.892Z,27.99
2022-08-11T08:17:41.232Z,27.95
2022-08-11T08:20:10.532Z,27.96
2022-08-11T08:22:39.507Z,27.97
2022-08-11T08:25:08.662Z,27.95
2022-08-11T08:27:38.483Z,27.92
2022-08-11T08:30:24.912Z,27.92
2022-08-11T08:32:52.526Z,27.97
2022-08-11T08:35:21.718Z,27.96
2022-08-11T08:37:51.187Z,27.97
2022-08-11T08:40:18.621Z,28.04
2022-08-11T08:42:51.420Z,28.09
2022-08-11T08:45:19.287Z,28.12
2022-08-11T08:47:52.958Z,28.04
2022-08-11T08:50:27.837Z,28.06
2022-08-11T08:52:59.336Z,28.04
2022-08-11T08:55:26.772Z,28.09
2022-08-11T08:57:55.628Z,28.06
2022-08-11T09:00:23.788Z,28.11
2022-08-11T09:02:51.452Z,28.20
2022-08-11T09:05:18.965Z,28.19
2022-08-11T09:07:47.961Z,28.17
2022-08-11T09:10:17.331Z,28.18
2022-08-11T09:12:44.786Z,28.19
2022-08-11T09:15:14.095Z,28.22
2022-08-11T09:17:44.651Z,28.24
2022-08-11T09:20:14.290Z,28.23
2022-08-11T09:24:02.068Z,28.31
2022-08-11T09:26:05.961Z,28.29
2022-08-11T09:28:34.349Z,28.23
2022-08-11T09:31:03.090Z,28.21
2022-08-11T09:33:30.548Z,28.22
2022-08-11T09:35:58.053Z,28.23
2022-08-11T09:38:49.273Z,28.20
2022-08-11T09:41:17.086Z,28.20
2022-08-11T09:44:04.345Z,28.27
2022-08-11T09:46:33.985Z,28.32
2022-08-11T09:49:02.409Z,28.35
2022-08-11T09:51:31.131Z,28.33
2022-08-11T09:54:02.882Z,28.30
2022-08-11T09:56:48.799Z,28.28
2022-08-11T09:59:18.724Z,28.26
2022-08-11T10:01:49.164Z,28.30
2022-08-11T10:04:17.319Z,28.27
2022-08-11T10:07:04.943Z,28.34
2022-08-11T10:09:37.205Z,28.41
2022-08-11T10:12:06.004Z,28.47
2022-08-11T10:14:51.103Z,28.32
2022-08-11T10:17:20.807Z,28.29
2022-08-11T10:20:05.301Z,28.34
2022-08-11T10:22:51.132Z,28.41
2022-08-11T10:25:36.457Z,28.42
2022-08-11T10:28:33.186Z,28.42
2022-08-11T10:31:12.487Z,28.44
2022-08-11T10:33:59.888Z,28.49
2022-08-11T10:36:27.663Z,28.50
2022-08-11T10:38:55.121Z,28.50
2022-08-11T10:41:41.989Z,28.53
2022-08-11T10:44:27.472Z,28.52
2022-08-11T10:47:12.586Z,28.49
2022-08-11T10:49:41.321Z,28.52
2022-08-11T10:52:26.146Z,28.55
2022-08-11T10:55:11.366Z,28.58
2022-08-11T10:58:04.987Z,28.58
2022-08-11T11:00:32.934Z,28.61
2022-08-11T11:03:23.302Z,28.61
2022-08-11T11:06:27.693Z,28.62
2022-08-11T11:08:58.894Z,28.62
2022-08-11T11:11:45.543Z,28.61
2022-08-11T11:14:31.748Z,28.60
2022-08-11T11:17:20.335Z,28.64
2022-08-11T11:19:47.779Z,28.65
2022-08-11T11:22:34.414Z,28.69
2022-08-11T11:25:04.989Z,28.70
2022-08-11T11:27:33.620Z,28.68
2022-08-11T11:30:04.855Z,28.64
2022-08-11T11:32:38.696Z,28.68
2022-08-11T11:35:18.105Z,28.68
2022-08-11T11:38:03.458Z,28.67
2022-08-11T11:40:32.744Z,28.69
2022-08-11T11:43:00.270Z,28.71
2022-08-11T11:45:27.815Z,28.65
2022-08-11T11:47:56.060Z,28.64
2022-08-11T11:50:24.879Z,28.60
2022-08-11T11:52:55.239Z,28.64
2022-08-11T11:55:23.696Z,28.66
2022-08-11T11:58:09.216Z,28.69
2022-08-11T12:01:02.010Z,28.69
2022-08-11T12:03:29.867Z,28.66
2022-08-11T12:05:57.348Z,28.62
2022-08-11T12:08:27.917Z,28.61
2022-08-11T12:11:16.933Z,28.64
2022-08-11T12:13:45.248Z,28.61
2022-08-11T12:16:34.337Z,28.62
2022-08-11T12:19:02.017Z,28.66
2022-08-11T12:21:29.813Z,28.71
2022-08-11T12:24:17.230Z,28.74
2022-08-11T12:27:15.614Z,28.76
2022-08-11T12:29:47.435Z,28.77
2022-08-11T12:32:17.653Z,28.75
2022-08-11T12:34:45.088Z,28.70
2022-08-11T12:37:13.831Z,28.70
2022-08-11T12:40:17.161Z,28.73
2022-08-11T12:43:21.073Z,28.74
2022-08-11T12:45:50.203Z,28.76
2022-08-11T12:49:00.543Z,28.78
2022-08-11T12:52:12.068Z,28.83
2022-08-11T12:54:32.392Z,28.87
2022-08-11T12:57:36.176Z,28.91
2022-08-11T13:00:23.639Z,28.94
2022-08-11T13:03:08.497Z,28.94
2022-08-11T13:05:44.647Z,28.94
2022-08-11T13:08:13.822Z,28.97
2022-08-11T13:10:58.942Z,29.00
2022-08-11T13:13:55.353Z,28.99
2022-08-11T13:16:15.231Z,28.98
2022-08-11T13:18:43.230Z,28.99
2022-08-11T13:21:10.989Z,28.97
2022-08-11T13:23:39.368Z,28.88
2022-08-11T13:26:08.001Z,28.84
2022-08-11T13:28:37.284Z,28.84
2022-08-11T13:31:14.998Z,28.86
2022-08-11T13:33:43.635Z,28.94
2022-08-11T13:36:11.204Z,28.94
2022-08-11T13:38:40.512Z,28.95
2022-08-11T13:41:27.966Z,28.93
2022-08-11T13:43:56.764Z,28.95
2022-08-11T13:46:24.464Z,28.99
2022-08-11T13:49:00.871Z,28.99
2022-08-11T13:51:34.058Z,28.97
2022-08-11T13:54:04.504Z,28.96
2022-08-11T13:56:32.414Z,29.01
2022-08-11T13:59:02.238Z,29.06
2022-08-11T14:02:19.632Z,29.08
2022-08-11T14:04:30.237Z,29.09
2022-08-11T14:07:00.739Z,29.12
2022-08-11T14:09:28.854Z,29.17
2022-08-11T14:12:21.232Z,29.19
2022-08-11T14:14:54.251Z,29.21
2022-08-11T14:17:48.455Z,29.20
2022-08-11T14:20:38.026Z,29.21
2022-08-11T14:22:57.800Z,29.17
2022-08-11T14:26:00.069Z,29.15
2022-08-11T14:28:31.984Z,29.09
2022-08-11T14:31:02.406Z,29.11
2022-08-11T14:33:58.473Z,29.14
2022-08-11T14:36:17.392Z,29.16
2022-08-11T14:38:44.888Z,29.18
2022-08-11T14:41:29.960Z,29.17
2022-08-11T14:44:15.231Z,29.09
2022-08-11T14:47:01.974Z,29.09
2022-08-11T14:49:29.620Z,29.11
2022-08-11T14:51:57.659Z,29.12
2022-08-11T14:54:43.268Z,29.07
2022-08-11T14:57:10.716Z,29.06
2022-08-11T14:59:38.256Z,29.03
2022-08-11T15:02:24.636Z,29.06
2022-08-11T15:04:52.122Z,29.02
2022-08-11T15:07:29.734Z,29.00
2022-08-11T15:10:14.056Z,28.99
2022-08-11T15:12:42.821Z,28.96
2022-08-11T15:15:28.217Z,28.94
2022-08-11T15:17:59.967Z,28.92
2022-08-11T15:20:45.995Z,28.93
2022-08-11T15:23:30.875Z,28.91
2022-08-11T15:25:59.283Z,28.92
2022-08-11T15:28:45.676Z,28.91
2022-08-11T15:31:31.202Z,28.94
2022-08-11T15:34:20.736Z,28.96
2022-08-11T15:37:06.153Z,29.01
2022-08-11T15:39:36.215Z,29.09
2022-08-11T15:42:22.995Z,29.12
2022-08-11T15:45:10.429Z,29.20
2022-08-11T15:47:41.730Z,29.21
2022-08-11T15:50:13.815Z,29.23
2022-08-11T15:52:47.439Z,29.24
2022-08-11T15:55:14.870Z,29.22
2022-08-11T15:57:59.958Z,29.23
2022-08-11T16:00:44.841Z,29.20
2022-08-11T16:04:06.029Z,29.16
2022-08-11T16:06:18.934Z,29.16
2022-08-11T16:08:49.919Z,29.14
2022-08-11T16:11:18.640Z,29.14
2022-08-11T16:14:04.006Z,29.14
2022-08-11T16:16:33.773Z,29.16
2022-08-11T16:19:01.233Z,29.18
2022-08-11T16:21:35.115Z,29.15
2022-08-11T16:24:05.749Z,29.12
2022-08-11T16:27:11.607Z,29.09
2022-08-11T16:29:21.524Z,29.12
2022-08-11T16:32:08.958Z,29.11
2022-08-11T16:34:54.122Z,29.10
2022-08-11T16:37:40.924Z,29.11
2022-08-11T16:40:10.238Z,29.11
2022-08-11T16:43:09.018Z,29.09
2022-08-11T16:45:56.587Z,29.07
2022-08-11T16:48:36.352Z,29.08
2022-08-11T16:51:05.542Z,29.05
2022-08-11T16:54:04.682Z,29.01
2022-08-11T16:56:22.828Z,29.01
2022-08-11T16:59:10.265Z,28.98
2022-08-11T17:01:37.733Z,28.99
2022-08-11T17:04:25.964Z,29.01
2022-08-11T17:07:40.376Z,29.00
2022-08-11T17:10:39.317Z,29.01
2022-08-11T17:13:13.166Z,29.07
2022-08-11T17:16:00.908Z,29.07
2022-08-11T17:18:44.044Z,29.04
2022-08-11T17:21:13.676Z,29.02
2022-08-11T17:23:50.380Z,28.98
2022-08-11T17:26:22.350Z,28.98
2022-08-11T17:28:56.222Z,28.97
2022-08-11T17:31:41.655Z,28.96
2022-08-11T17:34:33.997Z,28.97
2022-08-11T17:37:01.468Z,28.96
2022-08-11T17:39:30.566Z,28.98
2022-08-11T17:42:17.374Z,28.98
2022-08-11T17:45:02.742Z,28.98
2022-08-11T17:47:47.606Z,28.96
2022-08-11T17:50:17.725Z,28.96
2022-08-11T17:53:03.461Z,28.95
2022-08-11T17:55:52.343Z,28.94
2022-08-11T17:58:39.906Z,28.94
2022-08-11T18:01:08.927Z,28.92
2022-08-11T18:03:39.395Z,28.91
2022-08-11T18:06:12.702Z,28.90
2022-08-11T18:08:59.941Z,28.90
2022-08-11T18:12:10.721Z,28.90
2022-08-11T18:14:53.021Z,28.90
2022-08-11T18:17:38.558Z,28.88
2022-08-11T18:20:24.730Z,28.87
2022-08-11T18:23:10.247Z,28.87
2022-08-11T18:25:58.191Z,28.87
2022-08-11T18:28:44.994Z,28.85
2022-08-11T18:31:33.479Z,28.84
2022-08-11T18:34:20.388Z,28.81
2022-08-11T18:37:07.721Z,28.83
2022-08-11T18:39:56.434Z,28.80
2022-08-11T18:42:42.010Z,28.78
2022-08-11T18:45:29.285Z,28.76
2022-08-11T18:48:19.793Z,28.77
2022-08-11T18:51:31.336Z,28.73
2022-08-11T18:54:11.958Z,28.76
2022-08-11T18:56:57.269Z,28.77
2022-08-11T18:59:44.099Z,28.91
2022-08-11T19:02:29.428Z,29.02
2022-08-11T19:05:16.111Z,29.09
2022-08-11T19:08:01.499Z,29.11
2022-08-11T19:10:46.364Z,29.09
2022-08-11T19:13:31.635Z,29.15
2022-08-11T19:16:16.573Z,29.16
2022-08-11T19:19:02.006Z,29.18
2022-08-11T19:21:48.672Z,29.17
2022-08-11T19:24:33.982Z,29.15
2022-08-11T19:27:20.226Z,29.12
2022-08-11T19:30:13.870Z,29.04
2022-08-11T19:32:59.380Z,28.98
2022-08-11T19:35:44.721Z,28.94
2022-08-11T19:38:31.385Z,28.90
2022-08-11T19:41:16.893Z,28.90
2022-08-11T19:44:06.850Z,28.87
2022-08-11T19:46:52.306Z,28.84
2022-08-11T19:49:37.169Z,28.83
2022-08-11T19:52:23.618Z,28.79
2022-08-11T19:55:10.116Z,28.78
2022-08-11T19:57:55.579Z,28.75
2022-08-11T20:00:40.913Z,28.73
2022-08-11T20:03:27.244Z,28.71
2022-08-11T20:06:12.581Z,28.69
2022-08-11T20:08:59.917Z,28.65
2022-08-11T20:11:46.512Z,28.65
2022-08-11T20:14:31.955Z,28.63
2022-08-11T20:17:17.069Z,28.63
2022-08-11T20:20:02.652Z,28.61
2022-08-11T20:22:48.713Z,28.60
2022-08-11T20:25:33.923Z,28.59
2022-08-11T20:28:20.414Z,28.57
2022-08-11T20:31:05.775Z,28.55
2022-08-11T20:33:51.127Z,28.54
2022-08-11T20:36:36.433Z,28.57
2022-08-11T20:39:21.956Z,28.52
2022-08-11T20:42:07.175Z,28.27
2022-08-11T20:44:53.854Z,28.17
2022-08-11T20:47:59.460Z,28.29
2022-08-11T20:50:45.640Z,28.37
2022-08-11T20:53:31.399Z,28.41
2022-08-11T20:56:21.877Z,28.42
2022-08-11T20:59:17.685Z,28.42
2022-08-11T21:02:10.102Z,28.42
2022-08-11T21:04:56.387Z,28.44
2022-08-11T21:07:42.083Z,28.46
2022-08-11T21:10:27.255Z,28.47
2022-08-11T21:13:25.619Z,28.47
2022-08-11T21:16:12.188Z,28.46
2022-08-11T21:19:11.791Z,28.45
2022-08-11T21:21:57.058Z,28.44
2022-08-11T21:24:47.095Z,28.46
2022-08-11T21:27:33.844Z,28.47
2022-08-11T21:30:18.696Z,28.44
2022-08-11T21:33:04.081Z,28.47
2022-08-11T21:35:50.799Z,28.46
2022-08-11T21:38:36.150Z,28.45
2022-08-11T21:41:21.038Z,28.44
2022-08-11T21:44:06.184Z,28.41
2022-08-11T21:46:53.561Z,28.42
2022-08-11T21:49:39.068Z,28.42
2022-08-11T21:52:25.792Z,28.40
2022-08-11T21:55:10.717Z,28.40
2022-08-11T21:57:56.109Z,28.39
2022-08-11T22:00:41.326Z,28.38
2022-08-11T22:03:26.281Z,28.36
2022-08-11T22:06:11.736Z,28.34
2022-08-11T22:08:58.274Z,28.32
2022-08-11T22:11:43.585Z,28.34
2022-08-11T22:14:28.485Z,28.32
2022-08-11T22:17:13.834Z,28.36
2022-08-11T22:20:00.602Z,28.37
2022-08-11T22:22:52.398Z,28.33
2022-08-11T22:25:46.465Z,28.34
2022-08-11T22:28:37.577Z,28.34
2022-08-11T22:31:24.008Z,28.33
2022-08-11T22:34:10.121Z,28.32
2022-08-11T22:36:55.076Z,28.31
2022-08-11T22:39:40.577Z,28.32
2022-08-11T22:42:33.676Z,28.30
2022-08-11T22:45:19.284Z,28.31
2022-08-11T22:48:04.201Z,28.30
2022-08-11T22:50:49.533Z,28.28
2022-08-11T22:53:57.831Z,28.28
2022-08-11T22:56:39.587Z,28.29
2022-08-11T22:59:26.262Z,28.28
2022-08-11T23:02:11.657Z,28.27
2022-08-11T23:04:56.846Z,28.23
2022-08-11T23:07:50.925Z,28.22
2022-08-11T23:10:37.138Z,28.23
2022-08-11T23:13:22.590Z,28.23
2022-08-11T23:16:09.132Z,28.23
2022-08-11T23:18:54.557Z,28.22
2022-08-11T23:21:39.794Z,28.19
2022-08-11T23:24:25.572Z,28.15
2022-08-11T23:27:10.319Z,28.11
2022-08-11T23:29:55.777Z,28.08
2022-08-11T23:32:42.281Z,28.16
2022-08-11T23:35:38.163Z,28.23
2022-08-11T23:38:24.777Z,28.23
2022-08-11T23:41:10.272Z,28.23
2022-08-11T23:43:55.215Z,28.25
2022-08-11T23:46:40.584Z,28.26
2022-08-11T23:49:27.298Z,28.25
2022-08-11T23:52:12.637Z,28.26
2022-08-11T23:54:57.399Z,28.28
2022-08-11T23:57:48.954Z,28.28
